createdAt,value
2023-11-10T00:01:21.809Z,96604.91
2023-11-10T00:03:50.284Z,96609.38
2023-11-10T00:06:18.785Z,96607.25
2023-11-10T00:08:48.638Z,96608.06
2023-11-10T00:11:17.702Z,96607.91
2023-11-10T00:13:46.120Z,96599.13
2023-11-10T00:16:15.638Z,96599.13
2023-11-10T00:18:45.596Z,96604.13
2023-11-10T00:21:20.683Z,96590.88
2023-11-10T00:23:50.415Z,96591.84
2023-11-10T00:26:22.088Z,96593.03
2023-11-10T00:28:50.496Z,96585.94
2023-11-10T00:31:19.866Z,96577.97
2023-11-10T00:33:51.314Z,96579.63
2023-11-10T00:36:20.468Z,96579.44
2023-11-10T00:38:50.309Z,96572.69
2023-11-10T00:41:20.458Z,96572.50
2023-11-10T00:43:50.099Z,96570.84
2023-11-10T00:46:18.664Z,96576.97
2023-11-10T00:48:46.996Z,96570.03
2023-11-10T00:51:15.642Z,96566.56
2023-11-10T00:53:44.197Z,96562.25
2023-11-10T00:56:14.107Z,96559.94
2023-11-10T00:58:42.918Z,96556.81
2023-11-10T01:01:11.914Z,96551.84
2023-11-10T01:03:40.413Z,96559.13
2023-11-10T01:06:09.394Z,96553.38
2023-11-10T01:08:37.894Z,96545.59
2023-11-10T01:11:06.568Z,96542.28
2023-11-10T01:13:41.735Z,96537.31
2023-11-10T01:16:10.272Z,96528.72
2023-11-10T01:18:39.502Z,96535.00
2023-11-10T01:21:08.800Z,96527.06
2023-11-10T01:23:37.422Z,96518.66
2023-11-10T01:26:07.308Z,96520.47
2023-11-10T01:28:39.108Z,96520.63
2023-11-10T01:31:07.410Z,96517.16
2023-11-10T01:33:40.696Z,96510.38
2023-11-10T01:36:10.193Z,96516.00
2023-11-10T01:38:38.907Z,96508.25
2023-11-10T01:41:07.728Z,96494.34
2023-11-10T01:43:37.544Z,96486.75
2023-11-10T01:46:07.916Z,96486.28
2023-11-10T01:48:37.969Z,96486.44
2023-11-10T01:51:07.036Z,96467.44
2023-11-10T01:53:35.593Z,96452.72
2023-11-10T01:56:03.877Z,96445.47
2023-11-10T01:58:32.252Z,96441.34
2023-11-10T02:01:02.577Z,96432.75
2023-11-10T02:03:32.262Z,96430.44
2023-11-10T02:06:01.839Z,96424.66
2023-11-10T02:08:31.194Z,96422.19
2023-11-10T02:10:59.733Z,96424.38
2023-11-10T02:13:30.963Z,96429.84
2023-11-10T02:15:59.561Z,96430.97
2023-11-10T02:18:29.259Z,96441.91
2023-11-10T02:20:57.676Z,96432.00
2023-11-10T02:23:27.829Z,96432.34
2023-11-10T02:25:57.631Z,96439.81
2023-11-10T02:28:25.985Z,96432.03
2023-11-10T02:30:55.050Z,96439.47
2023-11-10T02:33:23.456Z,96437.16
2023-11-10T02:35:52.153Z,96432.22
2023-11-10T02:38:20.533Z,96430.91
2023-11-10T02:40:49.086Z,96418.03
2023-11-10T02:43:19.644Z,96415.06
2023-11-10T02:45:48.257Z,96421.34
2023-11-10T02:48:19.218Z,96413.91
2023-11-10T02:50:48.766Z,96418.38
2023-11-10T02:53:17.267Z,96410.78
2023-11-10T02:55:45.726Z,96408.28
2023-11-10T02:58:14.336Z,96405.00
2023-11-10T03:00:44.564Z,96405.97
2023-11-10T03:03:19.325Z,96404.84
2023-11-10T03:05:47.874Z,96405.19
2023-11-10T03:08:17.532Z,96401.88
2023-11-10T03:10:45.989Z,96396.13
2023-11-10T03:13:14.715Z,96385.53
2023-11-10T03:15:44.955Z,96371.31
2023-11-10T03:18:13.596Z,96365.03
2023-11-10T03:20:43.800Z,96361.41
2023-11-10T03:23:12.224Z,96360.41
2023-11-10T03:25:43.293Z,96356.94
2023-11-10T03:28:11.634Z,96357.59
2023-11-10T03:30:40.160Z,96352.16
2023-11-10T03:33:09.783Z,96354.78
2023-11-10T03:35:38.705Z,96352.00
2023-11-10T03:38:07.043Z,96355.47
2023-11-10T03:40:35.494Z,96346.69
2023-11-10T03:43:03.877Z,96345.88
2023-11-10T03:45:32.482Z,96345.88
2023-11-10T03:48:04.294Z,96348.34
2023-11-10T03:50:34.506Z,96346.53
2023-11-10T03:53:02.808Z,96344.72
2023-11-10T03:55:31.271Z,96342.88
2023-11-10T03:57:59.773Z,96341.91
2023-11-10T04:00:38.966Z,96350.66
2023-11-10T04:03:16.935Z,96355.94
2023-11-10T04:05:47.709Z,96351.66
2023-11-10T04:08:16.473Z,96350.00
2023-11-10T04:10:45.087Z,96355.28
2023-11-10T04:13:13.492Z,96353.63
2023-11-10T04:15:42.872Z,96350.19
2023-11-10T04:18:12.463Z,96355.63
2023-11-10T04:20:46.462Z,96359.06
2023-11-10T04:23:16.979Z,96351.50
2023-11-10T04:25:45.484Z,96349.84
2023-11-10T04:28:13.959Z,96349.84
2023-11-10T04:30:42.678Z,96350.84
2023-11-10T04:33:11.209Z,96352.66
2023-11-10T04:35:39.698Z,96371.16
2023-11-10T04:38:09.944Z,96368.84
2023-11-10T04:40:40.114Z,96357.78
2023-11-10T04:43:11.106Z,96352.88
2023-11-10T04:45:39.529Z,96369.22
2023-11-10T04:48:11.363Z,96363.22
2023-11-10T04:50:41.591Z,96353.84
2023-11-10T04:53:10.065Z,96359.28
2023-11-10T04:55:39.872Z,96371.81
2023-11-10T04:58:08.637Z,96373.78
2023-11-10T05:00:37.437Z,96365.41
2023-11-10T05:03:07.524Z,96355.81
2023-11-10T05:05:37.528Z,96350.84
2023-11-10T05:08:09.669Z,96349.22
2023-11-10T05:10:40.433Z,96343.25
2023-11-10T05:13:09.066Z,96342.63
2023-11-10T05:15:40.086Z,96337.16
2023-11-10T05:18:09.038Z,96343.25
2023-11-10T05:20:37.918Z,96347.91
2023-11-10T05:23:06.347Z,96349.53
2023-11-10T05:25:34.710Z,96351.34
2023-11-10T05:28:07.551Z,96347.06
2023-11-10T05:30:35.989Z,96353.34
2023-11-10T05:33:07.860Z,96354.47
2023-11-10T05:35:37.208Z,96356.97
2023-11-10T05:38:08.787Z,96360.59
2023-11-10T05:40:37.212Z,96368.53
2023-11-10T05:43:08.031Z,96363.41
2023-11-10T05:45:36.558Z,96369.69
2023-11-10T05:48:05.870Z,96367.22
2023-11-10T05:50:34.644Z,96365.72
2023-11-10T05:53:03.489Z,96364.91
2023-11-10T05:55:33.953Z,96361.44
2023-11-10T05:58:02.373Z,96364.22
2023-11-10T06:00:32.256Z,96376.59
2023-11-10T06:03:04.667Z,96380.25
2023-11-10T06:05:33.061Z,96389.16
2023-11-10T06:08:01.872Z,96382.88
2023-11-10T06:10:30.277Z,96382.88
2023-11-10T06:12:58.654Z,96386.34
2023-11-10T06:15:27.311Z,96398.56
2023-11-10T06:17:57.225Z,96394.13
2023-11-10T06:20:26.054Z,96395.91
2023-11-10T06:22:54.494Z,96405.66
2023-11-10T06:25:22.826Z,96402.19
2023-11-10T06:27:51.259Z,96409.97
2023-11-10T06:30:20.591Z,96403.00
2023-11-10T06:32:49.525Z,96413.72
2023-11-10T06:35:19.345Z,96407.66
2023-11-10T06:37:47.732Z,96413.09
2023-11-10T06:40:16.361Z,96417.53
2023-11-10T06:42:45.953Z,96414.72
2023-11-10T06:45:18.059Z,96416.53
2023-11-10T06:47:46.481Z,96417.38
2023-11-10T06:50:14.933Z,96421.66
2023-11-10T06:52:44.983Z,96414.56
2023-11-10T06:55:16.149Z,96412.75
2023-11-10T06:57:45.995Z,96423.66
2023-11-10T07:00:16.022Z,96406.81
2023-11-10T07:02:44.725Z,96412.94
2023-11-10T07:05:13.360Z,96412.94
2023-11-10T07:07:41.954Z,96406.66
2023-11-10T07:10:12.717Z,96410.75
2023-11-10T07:12:41.192Z,96410.59
2023-11-10T07:15:11.323Z,96408.47
2023-11-10T07:17:40.276Z,96418.88
2023-11-10T07:20:12.521Z,96407.13
2023-11-10T07:22:41.090Z,96408.13
2023-11-10T07:25:11.579Z,96412.25
2023-11-10T07:27:40.251Z,96415.91
2023-11-10T07:30:11.801Z,96419.38
2023-11-10T07:32:40.435Z,96416.56
2023-11-10T07:35:10.185Z,96419.22
2023-11-10T07:37:38.546Z,96417.88
2023-11-10T07:40:10.168Z,96414.91
2023-11-10T07:42:39.901Z,96410.13
2023-11-10T07:45:15.556Z,96411.44
2023-11-10T07:47:44.653Z,96400.38
2023-11-10T07:50:14.566Z,96396.44
2023-11-10T07:52:44.012Z,96397.94
2023-11-10T07:55:12.910Z,96397.09
2023-11-10T07:57:44.432Z,96407.00
2023-11-10T08:00:15.207Z,96410.63
2023-11-10T08:02:43.850Z,96407.97
2023-11-10T08:05:12.683Z,96408.97
2023-11-10T08:07:41.146Z,96409.75
2023-11-10T08:10:11.340Z,96408.75
2023-11-10T08:12:40.500Z,96410.53
2023-11-10T08:15:12.135Z,96412.50
2023-11-10T08:17:41.012Z,96408.00
2023-11-10T08:20:12.224Z,96409.13
2023-11-10T08:22:40.585Z,96410.91
2023-11-10T08:25:13.189Z,96410.25
2023-11-10T08:27:42.041Z,96409.38
2023-11-10T08:30:14.505Z,96410.50
2023-11-10T08:32:43.225Z,96412.47
2023-11-10T08:35:11.976Z,96413.59
2023-11-10T08:37:44.417Z,96420.03
2023-11-10T08:40:13.734Z,96426.59
2023-11-10T08:42:43.603Z,96422.47
2023-11-10T08:45:16.294Z,96429.09
2023-11-10T08:47:45.438Z,96428.38
2023-11-10T08:50:14.772Z,96427.03
2023-11-10T08:52:43.723Z,96430.97
2023-11-10T08:55:13.129Z,96429.63
2023-11-10T08:57:42.001Z,96429.13
2023-11-10T09:00:18.351Z,96435.69
2023-11-10T09:02:47.705Z,96435.19
2023-11-10T09:05:16.288Z,96445.41
2023-11-10T09:07:44.909Z,96444.06
2023-11-10T09:10:14.178Z,96444.53
2023-11-10T09:12:43.698Z,96444.19
2023-11-10T09:15:15.624Z,96431.59
2023-11-10T09:17:45.200Z,96435.53
2023-11-10T09:20:17.213Z,96441.28
2023-11-10T09:22:46.004Z,96433.81
2023-11-10T09:25:17.879Z,96432.63
2023-11-10T09:27:47.016Z,96428.81
2023-11-10T09:30:17.966Z,96426.63
2023-11-10T09:32:46.318Z,96429.75
2023-11-10T09:35:16.180Z,96429.38
2023-11-10T09:37:47.624Z,96419.25
2023-11-10T09:40:20.857Z,96426.84
2023-11-10T09:42:50.001Z,96422.19
2023-11-10T09:45:23.355Z,96414.88
2023-11-10T09:47:54.688Z,96414.34
2023-11-10T09:50:27.410Z,96415.00
2023-11-10T09:52:58.146Z,96411.81
2023-11-10T09:55:28.329Z,96412.25
2023-11-10T09:57:57.573Z,96404.75
2023-11-10T10:00:28.032Z,96402.72
2023-11-10T10:02:56.624Z,96400.00
2023-11-10T10:05:25.537Z,96401.28
2023-11-10T10:07:53.900Z,96398.75
2023-11-10T10:10:26.140Z,96399.22
2023-11-10T10:12:54.587Z,96380.47
2023-11-10T10:15:33.194Z,96387.25
2023-11-10T10:18:10.811Z,96376.25
2023-11-10T10:20:41.554Z,96377.53
2023-11-10T10:23:13.851Z,96380.84
2023-11-10T10:25:42.440Z,96380.09
2023-11-10T10:28:11.136Z,96368.47
2023-11-10T10:30:42.652Z,96381.72
2023-11-10T10:33:11.850Z,96375.22
2023-11-10T10:35:40.503Z,96381.00
2023-11-10T10:38:11.454Z,96379.97
2023-11-10T10:40:40.655Z,96383.28
2023-11-10T10:43:09.629Z,96370.84
2023-11-10T10:45:40.420Z,96382.25
2023-11-10T10:48:10.226Z,96378.44
2023-11-10T10:50:39.657Z,96377.22
2023-11-10T10:53:10.117Z,96374.56
2023-11-10T10:55:42.063Z,96372.75
2023-11-10T10:58:10.927Z,96375.66
2023-11-10T11:00:40.943Z,96377.13
2023-11-10T11:03:30.361Z,96366.94
2023-11-10T11:06:16.112Z,96352.94
2023-11-10T11:09:23.060Z,96339.91
2023-11-10T11:12:27.264Z,96340.81
2023-11-10T11:15:01.519Z,96334.94
2023-11-10T11:17:57.082Z,96327.22
2023-11-10T11:20:25.937Z,96324.00
2023-11-10T11:22:55.150Z,96328.09
2023-11-10T11:25:24.641Z,96317.09
2023-11-10T11:28:00.483Z,96313.41
2023-11-10T11:30:37.626Z,96309.59
2023-11-10T11:33:11.426Z,96321.66
2023-11-10T11:35:48.614Z,96315.31
2023-11-10T11:38:27.860Z,96322.09
2023-11-10T11:40:59.097Z,96319.66
2023-11-10T11:43:28.058Z,96314.13
2023-11-10T11:45:57.551Z,96313.50
2023-11-10T11:48:27.333Z,96319.66
2023-11-10T11:50:58.212Z,96322.91
2023-11-10T11:53:27.153Z,96323.56
2023-11-10T11:55:56.629Z,96321.97
2023-11-10T11:58:26.933Z,96322.22
2023-11-10T12:00:55.692Z,96325.91
2023-11-10T12:03:24.255Z,96333.16
2023-11-10T12:05:54.462Z,96326.63
2023-11-10T12:08:23.535Z,96329.50
2023-11-10T12:10:51.987Z,96336.91
2023-11-10T12:13:22.246Z,96333.28
2023-11-10T12:15:50.912Z,96326.13
2023-11-10T12:18:19.963Z,96331.91
2023-11-10T12:20:49.247Z,96322.72
2023-11-10T12:23:19.680Z,96330.31
2023-11-10T12:25:49.325Z,96321.50
2023-11-10T12:28:17.695Z,96317.66
2023-11-10T12:30:47.417Z,96308.44
2023-11-10T12:33:17.825Z,96301.31
2023-11-10T12:35:47.755Z,96303.78
2023-11-10T12:38:16.093Z,96307.88
2023-11-10T12:40:45.794Z,96314.44
2023-11-10T12:43:14.375Z,96306.25
2023-11-10T12:45:42.862Z,96307.94
2023-11-10T12:48:15.766Z,96301.78
2023-11-10T12:50:48.538Z,96307.72
2023-11-10T12:53:20.358Z,96304.03
2023-11-10T12:55:50.062Z,96308.34
2023-11-10T12:58:18.413Z,96309.16
2023-11-10T13:00:48.367Z,96308.34
2023-11-10T13:03:16.814Z,96300.34
2023-11-10T13:05:45.483Z,96306.72
2023-11-10T13:08:14.022Z,96305.06
2023-11-10T13:10:42.564Z,96301.59
2023-11-10T13:13:12.418Z,96304.84
2023-11-10T13:15:40.812Z,96307.50
2023-11-10T13:18:09.161Z,96308.16
2023-11-10T13:20:38.356Z,96308.34
2023-11-10T13:23:08.008Z,96304.66
2023-11-10T13:25:37.605Z,96306.31
2023-11-10T13:28:09.051Z,96311.63
2023-11-10T13:30:38.796Z,96313.28
2023-11-10T13:33:09.319Z,96308.78
2023-11-10T13:35:38.697Z,96311.25
2023-11-10T13:38:07.089Z,96310.41
2023-11-10T13:40:35.492Z,96314.72
2023-11-10T13:43:04.058Z,96309.19
2023-11-10T13:45:33.511Z,96314.50
2023-11-10T13:48:03.380Z,96316.19
2023-11-10T13:50:31.676Z,96316.97
2023-11-10T13:53:00.959Z,96317.38
2023-11-10T13:55:29.324Z,96318.00
2023-11-10T13:57:58.164Z,96313.72
2023-11-10T14:00:28.083Z,96323.31
2023-11-10T14:02:56.486Z,96321.50
2023-11-10T14:05:26.225Z,96325.16
2023-11-10T14:07:54.867Z,96332.94
2023-11-10T14:10:26.412Z,96322.31
2023-11-10T14:12:54.929Z,96323.13
2023-11-10T14:15:24.584Z,96328.47
2023-11-10T14:17:53.031Z,96330.09
2023-11-10T14:20:22.503Z,96319.44
2023-11-10T14:22:52.388Z,96313.31
2023-11-10T14:25:23.559Z,96311.47
2023-11-10T14:27:51.908Z,96313.94
2023-11-10T14:30:20.305Z,96315.16
2023-11-10T14:32:48.904Z,96315.34
2023-11-10T14:35:17.618Z,96318.00
2023-11-10T14:37:46.871Z,96320.03
2023-11-10T14:40:18.501Z,96321.06
2023-11-10T14:42:51.344Z,96314.50
2023-11-10T14:45:23.310Z,96320.00
2023-11-10T14:47:52.892Z,96322.84
2023-11-10T14:50:36.054Z,96325.72
2023-11-10T14:53:17.555Z,96327.72
2023-11-10T14:55:49.135Z,96322.81
2023-11-10T14:58:19.822Z,96324.66
2023-11-10T15:00:48.917Z,96316.69
2023-11-10T15:03:19.290Z,96310.53
2023-11-10T15:05:47.881Z,96315.00
2023-11-10T15:08:17.667Z,96323.00
2023-11-10T15:10:50.119Z,96322.38
2023-11-10T15:13:18.530Z,96330.56
2023-11-10T15:15:49.746Z,96324.59
2023-11-10T15:18:24.062Z,96314.34
2023-11-10T15:20:53.058Z,96312.91
2023-11-10T15:23:21.697Z,96314.09
2023-11-10T15:25:51.510Z,96309.53
2023-11-10T15:28:20.212Z,96315.06
2023-11-10T15:30:48.937Z,96314.44
2023-11-10T15:33:19.020Z,96317.50
2023-11-10T15:35:48.273Z,96318.69
2023-11-10T15:38:17.560Z,96312.94
2023-11-10T15:40:46.839Z,96321.69
2023-11-10T15:43:17.005Z,96323.25
2023-11-10T15:45:46.479Z,96328.94
2023-11-10T15:48:15.006Z,96326.84
2023-11-10T15:50:43.620Z,96324.56
2023-11-10T15:53:13.700Z,96327.63
2023-11-10T15:55:42.913Z,96342.28
2023-11-10T15:58:12.583Z,96345.13
2023-11-10T16:00:43.045Z,96348.97
2023-11-10T16:03:11.719Z,96354.88
2023-11-10T16:05:43.233Z,96338.47
2023-11-10T16:08:12.673Z,96315.31
2023-11-10T16:10:41.102Z,96317.28
2023-11-10T16:13:09.467Z,96324.56
2023-11-10T16:15:39.230Z,96319.16
2023-11-10T16:18:10.669Z,96328.69
2023-11-10T16:20:39.046Z,96329.91
2023-11-10T16:23:07.376Z,96334.75
2023-11-10T16:25:36.090Z,96335.13
2023-11-10T16:28:04.622Z,96338.97
2023-11-10T16:30:33.713Z,96345.47
2023-11-10T16:33:02.188Z,96352.16
2023-11-10T16:35:31.968Z,96347.41
2023-11-10T16:38:00.354Z,96343.31
2023-11-10T16:40:28.925Z,96362.91
2023-11-10T16:42:58.933Z,96387.34
2023-11-10T16:45:27.697Z,96389.06
2023-11-10T16:47:56.193Z,96399.09
2023-11-10T16:50:24.849Z,96395.97
2023-11-10T16:52:54.555Z,96386.09
2023-11-10T16:55:24.419Z,96378.31
2023-11-10T16:57:52.876Z,96381.31
2023-11-10T17:00:27.053Z,96387.19
2023-11-10T17:03:01.744Z,96384.88
2023-11-10T17:05:31.116Z,96378.31
2023-11-10T17:08:00.873Z,96368.91
2023-11-10T17:10:33.714Z,96369.06
2023-11-10T17:13:02.456Z,96371.06
2023-11-10T17:15:31.028Z,96371.25
2023-11-10T17:17:59.396Z,96367.81
2023-11-10T17:20:27.951Z,96364.50
2023-11-10T17:22:56.292Z,96373.47
2023-11-10T17:25:26.010Z,96377.09
2023-11-10T17:27:54.724Z,96381.59
2023-11-10T17:30:23.190Z,96385.41
2023-11-10T17:32:51.711Z,96374.19
2023-11-10T17:35:20.370Z,96377.00
2023-11-10T17:37:49.430Z,96380.81
2023-11-10T17:40:18.297Z,96384.66
2023-11-10T17:42:48.120Z,96382.56
2023-11-10T17:45:18.540Z,96387.38
2023-11-10T17:47:48.810Z,96381.63
2023-11-10T17:50:19.982Z,96379.03
2023-11-10T17:52:48.321Z,96393.66
2023-11-10T17:55:17.074Z,96392.03
2023-11-10T17:57:45.525Z,96393.19
2023-11-10T18:00:16.952Z,96399.66
2023-11-10T18:02:45.303Z,96399.50
2023-11-10T18:05:13.890Z,96393.34
2023-11-10T18:07:42.370Z,96389.91
2023-11-10T18:10:11.579Z,96401.31
2023-11-10T18:12:40.015Z,96389.91
2023-11-10T18:15:11.035Z,96386.41
2023-11-10T18:17:40.748Z,96389.25
2023-11-10T18:20:11.122Z,96398.03
2023-11-10T18:22:39.529Z,96396.38
2023-11-10T18:25:09.894Z,96393.72
2023-11-10T18:27:38.340Z,96393.88
2023-11-10T18:30:10.410Z,96404.66
2023-11-10T18:32:40.737Z,96397.25
2023-11-10T18:35:12.343Z,96397.78
2023-11-10T18:37:40.774Z,96400.78
2023-11-10T18:40:11.849Z,96397.00
2023-11-10T18:42:45.016Z,96402.00
2023-11-10T18:45:14.195Z,96399.09
2023-11-10T18:47:44.134Z,96401.59
2023-11-10T18:50:15.135Z,96404.91
2023-11-10T18:52:43.648Z,96410.09
2023-11-10T18:55:13.027Z,96408.78
2023-11-10T18:57:41.556Z,96403.03
2023-11-10T19:00:11.712Z,96408.66
2023-11-10T19:02:40.698Z,96414.94
2023-11-10T19:05:10.919Z,96414.31
2023-11-10T19:07:39.966Z,96410.66
2023-11-10T19:10:11.701Z,96405.53
2023-11-10T19:12:40.233Z,96409.00
2023-11-10T19:15:09.984Z,96409.00
2023-11-10T19:17:38.462Z,96403.72
2023-11-10T19:20:11.030Z,96405.53
2023-11-10T19:22:40.729Z,96402.88
2023-11-10T19:25:10.719Z,96407.16
2023-11-10T19:27:39.901Z,96402.88
2023-11-10T19:30:10.008Z,96402.03
2023-11-10T19:32:39.003Z,96396.75
2023-11-10T19:35:10.280Z,96402.22
2023-11-10T19:37:38.714Z,96404.06
2023-11-10T19:40:10.964Z,96407.69
2023-11-10T19:42:39.988Z,96403.41
2023-11-10T19:45:11.384Z,96402.56
2023-11-10T19:47:39.771Z,96403.56
2023-11-10T19:50:10.843Z,96409.03
2023-11-10T19:52:39.260Z,96402.09
2023-11-10T19:55:12.840Z,96411.03
2023-11-10T19:57:41.452Z,96401.59
2023-11-10T20:02:47.743Z,96409.06
2023-11-10T20:05:18.297Z,96418.84
2023-11-10T20:07:46.692Z,96422.66
2023-11-10T20:10:15.056Z,96430.78
2023-11-10T20:12:43.448Z,96420.34
2023-11-10T20:15:14.820Z,96417.06
2023-11-10T20:17:43.430Z,96410.13
2023-11-10T20:20:14.188Z,96412.94
2023-11-10T20:22:43.967Z,96413.28
2023-11-10T20:25:12.361Z,96410.13
2023-11-10T20:27:40.842Z,96411.47
2023-11-10T20:30:11.985Z,96408.00
2023-11-10T20:32:41.148Z,96403.06
2023-11-10T20:35:12.665Z,96402.56
2023-11-10T20:37:41.063Z,96403.75
2023-11-10T20:40:12.130Z,96404.06
2023-11-10T20:42:40.956Z,96401.94
2023-11-10T20:45:16.293Z,96401.44
2023-11-10T20:47:44.788Z,96398.16
2023-11-10T20:50:13.143Z,96401.16
2023-11-10T20:52:41.903Z,96401.50
2023-11-10T20:55:11.863Z,96402.84
2023-11-10T20:57:40.237Z,96397.88
2023-11-10T21:00:10.719Z,96396.38
2023-11-10T21:02:40.235Z,96391.44
2023-11-10T21:05:10.582Z,96391.13
2023-11-10T21:07:39.505Z,96391.28
2023-11-10T21:10:09.557Z,96392.44
2023-11-10T21:12:42.469Z,96386.84
2023-11-10T21:15:12.449Z,96390.47
2023-11-10T21:17:40.894Z,96389.81
2023-11-10T21:20:11.249Z,96377.91
2023-11-10T21:22:39.767Z,96375.44
2023-11-10T21:25:10.322Z,96378.25
2023-11-10T21:27:41.862Z,96384.69
2023-11-10T21:30:11.830Z,96377.13
2023-11-10T21:32:41.421Z,96372.31
2023-11-10T21:35:10.164Z,96375.97
2023-11-10T21:37:38.534Z,96372.66
2023-11-10T21:40:11.844Z,96374.63
2023-11-10T21:42:41.593Z,96374.97
2023-11-10T21:45:10.280Z,96362.09
2023-11-10T21:47:38.688Z,96368.19
2023-11-10T21:50:10.012Z,96358.78
2023-11-10T21:52:38.585Z,96361.75
2023-11-10T21:55:07.335Z,96360.28
2023-11-10T21:57:36.596Z,96357.13
2023-11-10T22:00:10.114Z,96340.78
2023-11-10T22:02:38.607Z,96348.88
2023-11-10T22:05:08.171Z,96345.59
2023-11-10T22:07:39.384Z,96344.09
2023-11-10T22:10:10.942Z,96349.53
2023-11-10T22:12:40.711Z,96340.31
2023-11-10T22:15:12.268Z,96340.31
2023-11-10T22:17:40.940Z,96331.53
2023-11-10T22:20:11.193Z,96343.94
2023-11-10T22:22:41.020Z,96338.00
2023-11-10T22:25:11.885Z,96331.88
2023-11-10T22:27:41.318Z,96330.25
2023-11-10T22:30:12.757Z,96327.75
2023-11-10T22:32:41.753Z,96331.56
2023-11-10T22:35:12.843Z,96333.38
2023-11-10T22:37:41.346Z,96335.22
2023-11-10T22:40:11.543Z,96335.38
2023-11-10T22:42:41.911Z,96338.19
2023-11-10T22:45:14.429Z,96335.69
2023-11-10T22:47:44.392Z,96340.31
2023-11-10T22:50:13.453Z,96334.38
2023-11-10T22:52:41.818Z,96338.16
2023-11-10T22:55:14.953Z,96329.75
2023-11-10T22:57:46.508Z,96326.47
2023-11-10T23:00:28.692Z,96336.50
2023-11-10T23:02:57.735Z,96327.13
2023-11-10T23:05:26.224Z,96322.16
2023-11-10T23:07:55.655Z,96315.38
2023-11-10T23:10:27.606Z,96320.00
2023-11-10T23:12:59.406Z,96311.59
2023-11-10T23:15:30.054Z,96303.16
2023-11-10T23:17:59.882Z,96300.22
2023-11-10T23:20:34.422Z,96298.69
2023-11-10T23:23:04.994Z,96302.66
2023-11-10T23:25:34.420Z,96298.72
2023-11-10T23:28:04.469Z,96299.03
2023-11-10T23:30:35.441Z,96293.25
2023-11-10T23:33:04.285Z,96294.41
2023-11-10T23:35:35.037Z,96287.50
2023-11-10T23:38:03.534Z,96283.19
2023-11-10T23:40:34.634Z,96273.63
2023-11-10T23:43:03.156Z,96281.53
2023-11-10T23:45:31.570Z,96273.78
2023-11-10T23:48:01.461Z,96278.22
2023-11-10T23:50:30.760Z,96270.47
2023-11-10T23:52:59.293Z,96268.69
2023-11-10T23:55:28.203Z,96268.69
2023-11-10T23:57:56.510Z,96266.72
